Tiempo atmosférico en la estación meteorológica de Puebla De Obando, Badajoz (392 m.)



Fecha
DESCASC
Temp. máxima en grados centígrados (hora)
DESCASC
Temp. mínima en grados centígrados (hora)
DESCASC
Temp. media en grados centígrados
DESCASC
Racha de viento máxima en m/sg (hora)
DESCASC
Velocidad máxima media en intervalos de 10 minutos(hora)
DESCASC
Precipitaciones diarias en mm
DESCASC
Precipitaciones de 00:00 a 06:00 en mm
DESCASC
Precipitaciones de 06:00 a 12:00 en mm
DESCASC
Precipitaciones de 12:00 a 18:00 en mm
DESCASC
Precipitaciones de 18:00 a 24:00 en mm
DESCASC
28-02-2021 16.9 (16:50) 3.3 (07:30) 10.1 8.33 (13:40) 4.44 (11:20) 0 0 0 0 0
27-02-2021 17.7 (14:30) 6.8 (07:50) 12.3 6.11 (02:40) 4.44 (02:40) 0 0 0 0 0
26-02-2021 15.8 (14:30) 9.3 (07:50) 12.6 6.11 (11:10) 4.17 (11:10) 0 0 0 0 0
25-02-2021 14.9 (14:40) 8.4 (00:00) 11.6 7.22 (11:10) 5 (16:30) 0 0 0 0 0
24-02-2021 17.8 (16:30) 4.4 (00:00) 11.1 11.11 (13:00) 7.78 (13:10) 0 0 0 0 0
23-02-2021 15.7 (16:50) 3 (00:00) 9.3 10 (14:20) 6.67 (13:00) 0 0 0 0 0
22-02-2021 14.2 (16:40) 1.4 (00:00) 7.8 8.33 (15:00) 4.17 (15:40) 0 0 0 0 0
21-02-2021 13.7 (00:00) 5.4 (00:00) 9.5 18.89 (05:20) 9.17 (05:20) 4.8 0 4.8 0 0
20-02-2021 15 (15:40) 8.4 (00:00) 11.7 14.72 (22:10) 8.89 (22:00) 0 0 0 0 0
19-02-2021 15 (17:30) 5 (00:00) 10 7.78 (00:20) 5.28 (00:10) 0 0 0 0 0
18-02-2021 16.5 (16:00) 4.5 (00:00) 10.5 8.89 (23:10) 5.83 (23:59) 0 0 0 0 0
17-02-2021 18.5 (15:20) 4.7 (00:00) 11.6 8.33 (21:20) 5 (21:20) 0 0 0 0 0
16-02-2021 15.7 (13:30) 5.4 (00:00) 10.5 8.06 (13:40) 4.72 (14:20) 0 0 0 0 0
15-02-2021 18.1 (16:40) 6.9 (00:00) 12.5 11.11 (12:50) 7.5 (13:00) 0 0 0 0 0
14-02-2021 18.8 (15:40) 4.6 (00:00) 11.7 8.61 (11:20) 5.83 (11:20) 0 0 0 0 0
13-02-2021 17.8 (16:20) 4.4 (00:00) 11.1 4.17 (13:50) 2.78 (13:50) 0 0 0 0 0
12-02-2021 16.2 (17:00) 7.6 (00:00) 11.9 11.11 (02:10) 7.5 (02:10) 5.2 5 0.2 0 0
11-02-2021 14.4 (14:50) 11.3 (00:00) 12.8 7.78 (23:40) 5.28 (23:10) 2.6 0.2 1 0.6 0.8
10-02-2021 14.5 (14:00) 9.5 (00:00) 12 14.44 (03:50) 8.89 (04:10) 2.6 0 1.8 0 0.8
09-02-2021 11.6 (17:40) 8.2 (00:00) 9.9 17.5 (11:50) 10 (14:00) 19.2 0 7.6 11.6 0
08-02-2021 12.5 (15:20) 7.9 (00:00) 10.2 14.72 (03:20) 9.17 (13:50) 13.8 13 0.2 0.6 0
07-02-2021 11.6 (14:30) 4.5 (00:00) 8.1 11.11 (23:59) 6.67 (23:59) 1.2 0 0 0 1.2
06-02-2021 10.2 (13:00) 7.7 (00:00) 8.9 8.06 (04:40) 5 (07:40) 3.4 1 1 1.4 0
05-02-2021 10.5 (10:50) 8.6 (00:00) 9.6 8.89 (11:30) 5.28 (11:30) 21 1.4 10.4 6.4 2.8
04-02-2021 10.4 (00:00) 8.8 (00:00) 9.6 6.67 (17:30) 4.72 (17:40) 30.4 0.6 18.4 10.4 1
03-02-2021 13.4 (16:30) 9.3 (00:00) 11.3 12.22 (17:30) 6.94 (17:40) 13.8 0 6.6 4.4 2.8
02-02-2021 13 (12:10) 10 (00:00) 11.5 7.22 (02:40) 4.72 (02:30) 1 0 1 0 0
01-02-2021 14.5 (14:00) 7.2 (00:00) 10.8 10 (15:50) 7.22 (15:10) 0 0 0 0 0
31-01-2021 13.5 (16:10) 7.6 (00:00) 10.5 12.78 (13:50) 8.33 (13:30) 0.4 0 0 0 0.4

Gráficas

Temp. máximas Temp. mínimas Temp. medias Precipitaciones Rachas de viento máximas Velocidades máximas media en intervalos de 10 minutos

Datos horarios

Fecha y hora oficial Temperatura (ºC) Velocidad del viento (km/h) Dirección del viento Racha (km/h) Dirección de racha Precipitación (mm) Presión (hPa) Tendencia (hPa) Humedad (%)
2021-03-01 23:00:00 8.7 2 Sur 4 Sudeste 0 -- -- 95
2021-03-01 22:00:00 8.9 2 Sudeste 5 Sur 0 -- -- 97
2021-03-01 21:00:00 9.4 3 Sudeste 5 Este 0 -- -- 94
2021-03-01 20:00:00 9.8 4 Sudeste 8 Este 0 -- -- 93
2021-03-01 19:00:00 12.1 8 Sudeste 20 Sudeste 0 -- -- 83
2021-03-01 18:00:00 14.8 15 Sudeste 22 Sudeste 0 -- -- 72
2021-03-01 17:00:00 15 12 Sudeste 21 Sudeste 0 -- -- 72
2021-03-01 16:00:00 15.5 10 Sur 18 Sur 0 -- -- 72
2021-03-01 15:00:00 15.1 9 Sur 20 Sudeste 0 -- -- 73
2021-03-01 14:00:00 15.1 13 Sudeste 22 Sudeste 0 -- -- 71
2021-03-01 13:00:00 13.5 14 Sudeste 24 Sur 0 -- -- 75
2021-03-01 12:00:00 13.5 14 Sudeste 21 Sudeste 0 -- -- 75
2021-03-01 11:00:00 12.6 18 Sudeste 27 Sudeste 0 -- -- 77
2021-03-01 10:00:00 10.8 18 Sudeste 26 Sudeste 0 -- -- 81
2021-03-01 09:00:00 8.6 15 Sudeste 26 Sudeste 0 -- -- 87
2021-03-01 08:00:00 7.1 5 Sudeste 15 Sudeste 0 -- -- 90
2021-03-01 07:00:00 8 7 Sudeste 18 Sudeste 0 -- -- 89
2021-03-01 06:00:00 9.2 11 Sudeste 21 Sudeste 0 -- -- 87
2021-03-01 05:00:00 10 12 Sudeste 18 Sudeste 0 -- -- 85
2021-03-01 04:00:00 10 9 Sudeste 13 Sudeste 0 -- -- 90
2021-03-01 03:00:00 9.2 0 Calma 3 Sudeste 0 -- -- 95
2021-03-01 02:00:00 8.5 0 Calma -- -- 0 -- -- 99
2021-03-01 01:00:00 7.7 0 Calma -- -- 0 -- -- 97
2021-03-01 00:00:00 8 0 Calma -- -- 0 -- -- 98
2021-02-28 23:00:00 8.4 0 Calma 4 Sur 0 -- -- 98
2021-02-28 22:00:00 8.8 2 Sur 6 Sudeste 0 -- -- 97
2021-02-28 21:00:00 9.5 5 Sudeste 8 Sur 0 -- -- 94
2021-02-28 20:00:00 11.8 2 Sudeste 8 Sudeste 0 -- -- 84
2021-02-28 19:00:00 14.4 5 Sudeste 16 Sudeste 0 -- -- 76
2021-02-28 18:00:00 16.4 10 Este 18 Este 0 -- -- 65
2021-02-28 17:00:00 16.1 8 Sudeste 26 Sudeste 0 -- -- 66
2021-02-28 16:00:00 16.2 10 Sudeste 23 Sudeste 0 -- -- 66
2021-02-28 15:00:00 16.8 8 Sudeste 22 Este 0 -- -- 64
2021-02-28 14:00:00 16 12 Sur 30 Sudeste 0 -- -- 66
2021-02-28 13:00:00 15.2 15 Sudeste 25 Sudeste 0 -- -- 69
2021-02-28 12:00:00 14.4 12 Sur 24 Sur 0 -- -- 72
2021-02-28 11:00:00 13.1 13 Sur 22 Sur 0 -- -- 74
2021-02-28 10:00:00 10.9 13 Sudeste 19 Sudeste 0 -- -- 86
2021-02-28 09:00:00 6.9 11 Sudeste 13 Sudeste 0 -- -- 99
2021-02-28 08:00:00 4 4 Sudeste 10 Sudeste 0 -- -- 100
2021-02-28 07:00:00 4.8 4 Sudeste 6 Sudeste 0 -- -- 98
2021-02-28 06:00:00 3.5 5 Sudeste 7 Sur 0 -- -- 96
2021-02-28 05:00:00 5 3 Nordeste 13 Norte 0 -- -- 90
2021-02-28 04:00:00 7.2 12 Nordeste 15 Norte 0 -- -- 82
2021-02-28 03:00:00 5 0 Calma 4 Nordeste 0 -- -- 92
2021-02-28 02:00:00 5.6 0 Calma 9 Norte 0 -- -- 89
2021-02-28 01:00:00 6 0 Calma 3 Nordeste 0 -- -- 87
2021-02-28 00:00:00 7.5 0 Calma 5 Nordeste 0 -- -- 82
2021-02-27 23:00:00 7.2 0 Calma 4 Sudeste 0 -- -- 90
2021-02-27 22:00:00 7.8 5 Sudeste 13 Sur 0 -- -- 85
2021-02-27 21:00:00 8.6 0 Calma 3 Sur 0 -- -- 88
2021-02-27 20:00:00 10.1 0 Calma 5 Sur 0 -- -- 87
2021-02-27 19:00:00 13.7 3 Sur 7 Sur 0 -- -- 73
2021-02-27 18:00:00 15.4 5 Sur 10 Sur 0 -- -- 60
2021-02-27 17:00:00 16.6 5 Norte 12 Nordeste 0 -- -- 51
2021-02-27 16:00:00 17 6 Nordeste 14 Nordeste 0 -- -- 44
2021-02-27 15:00:00 16.9 10 Nordeste 17 Norte 0 -- -- 49
2021-02-27 14:00:00 17.4 9 Este 18 Sudeste 0 -- -- 47
2021-02-27 13:00:00 16.9 13 Este 20 Sudeste 0 -- -- 50
2021-02-27 12:00:00 15.2 6 Este 12 Este 0 -- -- 60
2021-02-27 11:00:00 12.3 5 Nordeste 14 Norte 0 -- -- 77
2021-02-27 10:00:00 10.4 12 Nordeste 15 Norte 0 -- -- 83
2021-02-27 09:00:00 8.2 6 Nordeste 14 Norte 0 -- -- 92
2021-02-27 08:00:00 7.4 9 Nordeste 13 Nordeste 0 -- -- 96
2021-02-27 07:00:00 7.7 7 Nordeste 12 Nordeste 0 -- -- 92
2021-02-27 06:00:00 8.8 6 Norte 13 Nordeste 0 -- -- 89
2021-02-27 05:00:00 9.4 10 Nordeste 17 Nordeste 0 -- -- 89
2021-02-27 04:00:00 10.2 15 Nordeste 21 Nordeste 0 -- -- 86
2021-02-27 03:00:00 10.3 13 Nordeste 22 Nordeste 0 -- -- 88
2021-02-27 02:00:00 10.4 11 Nordeste 19 Nordeste 0 -- -- 89
2021-02-27 01:00:00 10.2 4 Norte 10 Nordeste 0 -- -- 90
2021-02-27 00:00:00 10.9 3 Oeste 11 Noroeste 0 -- -- 87
2021-02-26 23:00:00 10.6 4 Oeste 16 Norte 0 -- -- 89
2021-02-26 22:00:00 11.5 9 Norte 16 Norte 0 -- -- 86
2021-02-26 21:00:00 11.8 8 Norte 12 Norte 0 -- -- 87
2021-02-26 20:00:00 12.1 4 Norte 14 Nordeste 0 -- -- 87
2021-02-26 19:00:00 12.9 6 Norte 12 Norte 0 -- -- 86
2021-02-26 18:00:00 14.2 7 Norte 14 Nordeste 0 -- -- 79
2021-02-26 17:00:00 15 9 Nordeste 16 Nordeste 0 -- -- 77
2021-02-26 16:00:00 15.3 7 Nordeste 13 Nordeste 0 -- -- 74
2021-02-26 15:00:00 15.6 5 Este 14 Sudeste 0 -- -- 72
2021-02-26 14:00:00 15.4 6 Este 21 Sudeste 0 -- -- 70
2021-02-26 13:00:00 14.5 12 Sudeste 18 Sudeste 0 -- -- 75
2021-02-26 12:00:00 13.1 8 Nordeste 22 Sudeste 0 -- -- 77
2021-02-26 11:00:00 12.7 12 Sudeste 15 Sudeste 0 -- -- 80
2021-02-26 10:00:00 11.4 6 Sudeste 10 Sudeste 0 -- -- 85
2021-02-26 09:00:00 10.7 5 Sudeste 11 Sudeste 0 -- -- 86
2021-02-26 08:00:00 9.4 4 Sudeste 11 Sudeste 0 -- -- 90
2021-02-26 07:00:00 9.8 6 Sudeste 10 Este 0 -- -- 87
2021-02-26 06:00:00 9.7 2 Sudeste 10 Nordeste 0 -- -- 87
2021-02-26 05:00:00 10 4 Norte 8 Norte 0 -- -- 87
2021-02-26 04:00:00 10.4 2 Noroeste 14 Nordeste 0 -- -- 84
2021-02-26 03:00:00 10 12 Nordeste 21 Norte 0 -- -- 90
2021-02-26 02:00:00 11.1 4 Sudeste 6 Sur 0 -- -- 82
2021-02-26 01:00:00 10.8 2 Sur 5 Sudeste 0 -- -- 84
2021-02-26 00:00:00 10.9 2 Sur 5 Este 0 -- -- 86
2021-02-25 23:00:00 11.1 4 Sudeste 6 Sudeste 0 -- -- 83
2021-02-25 22:00:00 10.7 5 Sudeste 14 Este 0 -- -- 85
2021-02-25 21:00:00 11.1 10 Este 13 Este 0 -- -- 86
2021-02-25 20:00:00 11.9 6 Este 15 Este 0 -- -- 83
2021-02-25 19:00:00 12.4 2 Sudeste 14 Sudeste 0 -- -- 85
2021-02-25 18:00:00 13.1 11 Este 20 Sudeste 0 -- -- 78
2021-02-25 17:00:00 13.8 15 Sudeste 23 Sudeste 0 -- -- 77
2021-02-25 16:00:00 14.5 17 Sudeste 23 Sudeste 0 -- -- 74
2021-02-25 15:00:00 14.8 15 Sudeste 22 Sudeste 0 -- -- 71
2021-02-25 14:00:00 14.2 13 Sudeste 24 Sudeste 0 -- -- 75
2021-02-25 13:00:00 14 12 Sur 23 Sudeste 0 -- -- 76
2021-02-25 12:00:00 12.3 15 Sudeste 26 Sur 0 -- -- 83
2021-02-25 11:00:00 11.4 16 Sudeste 24 Sur 0 -- -- 86
2021-02-25 10:00:00 10 14 Sudeste 20 Sur 0 -- -- 91
2021-02-25 09:00:00 8.9 10 Sudeste 16 Sudeste 0 -- -- 94
2021-02-25 08:00:00 8.8 8 Sudeste 13 Sudeste 0 -- -- 94
2021-02-25 07:00:00 8.9 9 Sudeste 18 Sudeste 0 -- -- 93
2021-02-25 06:00:00 9.1 8 Sudeste 14 Sudeste 0 -- -- 92
2021-02-25 05:00:00 9.4 10 Sudeste 15 Sudeste 0 -- -- 92
2021-02-25 04:00:00 8.4 10 Sudeste 15 Sudeste 0 -- -- 97
2021-02-25 03:00:00 8.9 9 Sur 17 Sur 0 -- -- 90
2021-02-25 02:00:00 9 12 Sur 17 Sudeste 0 -- -- 93
2021-02-25 01:00:00 9.3 12 Sudeste 14 Sur 0 -- -- 92
2021-02-25 00:00:00 10.3 10 Sudeste 16 Sudeste 0 -- -- 88
2021-02-24 23:00:00 11.7 8 Sudeste 17 Sur 0 -- -- 82
2021-02-24 22:00:00 11.4 8 Sudeste 13 Sudeste 0 -- -- 84
2021-02-24 21:00:00 12.1 10 Sudeste 14 Sur 0 -- -- 81
2021-02-24 20:00:00 12.8 10 Sudeste 19 Sudeste 0 -- -- 78
2021-02-24 19:00:00 15 14 Sur 26 Sur 0 -- -- 71
2021-02-24 18:00:00 16.4 14 Sur 33 Sudeste 0 -- -- 65
2021-02-24 17:00:00 17.6 22 Sudeste 32 Sudeste 0 -- -- 59
2021-02-24 16:00:00 17.3 20 Sudeste 32 Sudeste 0 -- -- 62
2021-02-24 15:00:00 16.9 20 Sur 35 Sur 0 -- -- 65
2021-02-24 14:00:00 16 21 Sur 38 Sudeste 0 -- -- 65
2021-02-24 13:00:00 14.9 28 Sudeste 40 Sudeste 0 -- -- 65
2021-02-24 12:00:00 13.9 23 Sudeste 36 Sudeste 0 -- -- 69
2021-02-24 11:00:00 12.3 24 Sudeste 32 Sudeste 0 -- -- 73
2021-02-24 10:00:00 10.2 15 Sudeste 24 Sudeste 0 -- -- 83
2021-02-24 09:00:00 7.4 10 Sudeste 18 Sudeste 0 -- -- 89
2021-02-24 08:00:00 5.6 10 Sudeste 18 Sudeste 0 -- -- 93
2021-02-24 07:00:00 4.9 9 Sur 12 Sur 0 -- -- 96
2021-02-24 06:00:00 5.6 8 Sur 13 Sudeste 0 -- -- 94
2021-02-24 05:00:00 5.7 12 Sudeste 15 Sudeste 0 -- -- 94
2021-02-24 04:00:00 4.6 8 Sudeste 13 Sudeste 0 -- -- 95
2021-02-24 03:00:00 4.7 4 Sur 8 Sur 0 -- -- 95
2021-02-24 02:00:00 5.5 5 Sudeste 8 Sudeste 0 -- -- 92
2021-02-24 01:00:00 6.2 5 Sur 9 Sudeste 0 -- -- 89
2021-02-24 00:00:00 7.3 4 Sudeste 10 Sudeste 0 -- -- 84
2021-02-23 23:00:00 7.5 4 Sudeste 6 Sudeste 0 -- -- 82
2021-02-23 22:00:00 8.6 3 Sudeste 6 Sudeste 0 -- -- 77
2021-02-23 21:00:00 9.4 4 Sur 8 Sudeste 0 -- -- 76
2021-02-23 20:00:00 9.7 2 Sudeste 12 Sudeste 0 -- -- 76
2021-02-23 19:00:00 12.6 11 Sudeste 28 Sudeste 0 -- -- 65
2021-02-23 18:00:00 14.8 19 Sudeste 33 Sudeste 0 -- -- 53
2021-02-23 17:00:00 15.7 18 Sudeste 35 Sudeste 0 -- -- 50
2021-02-23 16:00:00 15.5 15 Sudeste 29 Sudeste 0 -- -- 56
2021-02-23 15:00:00 15.1 18 Sudeste 36 Sudeste 0 -- -- 58
2021-02-23 14:00:00 14.7 21 Sudeste 32 Sudeste 0 -- -- 51
2021-02-23 13:00:00 13.6 24 Sudeste -- -- -- -- -- 57
2021-02-23 12:00:00 13.2 16 Sudeste 30 Sudeste 0 -- -- 65
2021-02-23 11:00:00 12 17 Sudeste 26 Sudeste 0 -- -- 72
2021-02-23 10:00:00 9.6 12 Sudeste 20 Sudeste 0 -- -- 80
2021-02-23 09:00:00 6.7 6 Sudeste 9 Sudeste 0 -- -- 90
2021-02-23 08:00:00 4.4 5 Sur 9 Sudeste 0 -- -- 95
2021-02-23 07:00:00 4.6 6 Sudeste 14 Sudeste 0 -- -- 96
2021-02-23 06:00:00 4.2 9 Sudeste 12 Sudeste 0 -- -- 97
2021-02-23 05:00:00 4 7 Sur 12 Sudeste 0 -- -- 100
2021-02-23 04:00:00 3.5 6 Sur 8 Sur 0 -- -- 98
2021-02-23 03:00:00 4 5 Sudeste 9 Sudeste 0 -- -- 98
2021-02-23 02:00:00 4.1 8 Sudeste 10 Sudeste 0 -- -- 98
2021-02-23 01:00:00 4.3 5 Sur 7 Sudeste 0 -- -- 99
2021-02-23 00:00:00 4.4 3 Sur 5 Sur 0 -- -- 100
2021-02-22 23:00:00 4.7 3 Sur 4 Sudeste 0 -- -- 99
2021-02-22 22:00:00 5.4 3 Sudeste 3 Sudeste 0 -- -- 98
2021-02-22 21:00:00 6.3 2 Sudeste 4 Sudeste 0 -- -- 94
2021-02-22 20:00:00 8.3 0 Calma 5 Sudoeste 0 -- -- 88
2021-02-22 19:00:00 11.6 5 Sudoeste 16 Oeste 0 -- -- 70
2021-02-22 18:00:00 13.6 10 Noroeste 20 Oeste 0 -- -- 60
2021-02-22 17:00:00 13.8 12 Oeste 22 Oeste 0 -- -- 58
2021-02-22 16:00:00 13.9 13 Oeste 26 Oeste 0 -- -- 65
2021-02-22 15:00:00 13.6 15 Oeste 30 Oeste 0 -- -- 67
2021-02-22 14:00:00 11.2 9 Noroeste 21 Oeste 0 -- -- 68
2021-02-22 13:00:00 11.9 11 Oeste 24 Noroeste 0 -- -- 66
2021-02-22 12:00:00 10.9 10 Noroeste 19 Noroeste 0 -- -- 70
2021-02-22 11:00:00 9.7 6 Noroeste 13 Noroeste 0 -- -- 77
2021-02-22 10:00:00 7.9 7 Noroeste 11 Noroeste 0 -- -- 87
2021-02-22 09:00:00 4.5 6 Noroeste 9 Noroeste 0 -- -- 100
2021-02-22 08:00:00 2.6 8 Noroeste 9 Noroeste 0 -- -- 100
2021-02-22 07:00:00 1.6 4 Noroeste 10 Noroeste 0 -- -- 95
2021-02-22 06:00:00 3 9 Noroeste 12 Noroeste 0 -- -- 99
2021-02-22 05:00:00 3.1 8 Noroeste 13 Oeste 0 -- -- 99
2021-02-22 04:00:00 3.2 7 Noroeste 9 Oeste 0 -- -- 100
2021-02-22 03:00:00 3.6 9 Noroeste 19 Noroeste 0 -- -- 96
2021-02-22 02:00:00 4.3 13 Noroeste 17 Noroeste 0 -- -- 97
2021-02-22 01:00:00 4.1 10 Noroeste 17 Noroeste 0 -- -- 97
2021-02-22 00:00:00 5.5 13 Noroeste 19 Noroeste 0 -- -- 91
2021-02-21 23:00:00 6 14 Noroeste 21 Noroeste 0 -- -- 90
2021-02-21 22:00:00 6.7 13 Noroeste 19 Noroeste 0 -- -- 88
2021-02-21 21:00:00 7.8 13 Noroeste 26 Noroeste 0 -- -- 87
2021-02-21 20:00:00 9.2 16 Noroeste 30 Noroeste 0 -- -- 80
2021-02-21 19:00:00 10.1 15 Noroeste 25 Noroeste 0 -- -- 72
2021-02-21 18:00:00 10.6 14 Noroeste 22 Noroeste 0 -- -- 75
2021-02-21 17:00:00 10.6 16 Noroeste 30 Noroeste 0 -- -- 71
2021-02-21 16:00:00 10.3 17 Noroeste 31 Noroeste 0 -- -- 75
2021-02-21 15:00:00 8.8 15 Noroeste 30 Noroeste 0 -- -- 85
2021-02-21 14:00:00 8.6 15 Noroeste 23 Noroeste 0 -- -- 90
2021-02-21 13:00:00 8.7 12 Noroeste 19 Norte 0 -- -- 91
2021-02-21 12:00:00 7.5 9 Nordeste 19 Norte 0 -- -- 95
2021-02-21 11:00:00 6.7 9 Noroeste 26 Noroeste 0.4 -- -- 98
2021-02-21 10:00:00 7 9 Noroeste 22 Oeste 1.2 -- -- 98
2021-02-21 09:00:00 7.6 13 Oeste 20 Oeste 1.4 -- -- 100
2021-02-21 08:00:00 7.9 11 Oeste 25 Oeste 0.6 -- -- 100
2021-02-21 07:00:00 8.8 13 Oeste 39 Sudoeste 1.2 -- -- 100
2021-02-21 06:00:00 10 26 Sudoeste 68 Sudoeste 0 -- -- 92
2021-02-21 05:00:00 12.4 24 Sur 41 Sur 0 -- -- 68
2021-02-21 04:00:00 12 24 Sur 50 Sur 0 -- -- 68
2021-02-21 03:00:00 12.4 24 Sur 40 Sudeste 0 -- -- 63
2021-02-21 02:00:00 13 24 Sudeste 41 Sudeste 0 -- -- 64
2021-02-21 01:00:00 13.6 25 Sur 45 Sur 0 -- -- 65
2021-02-21 00:00:00 13.7 28 Sur 48 Sur 0 -- -- 66
2021-02-20 23:00:00 13.8 26 Sur 53 Sur 0 -- -- 60
2021-02-20 22:00:00 14.3 32 Sur 51 Sur 0 -- -- 55
2021-02-20 21:00:00 14.4 29 Sur 45 Sur 0 -- -- 57
2021-02-20 20:00:00 13.5 22 Sur 39 Sudeste 0 -- -- 63
2021-02-20 19:00:00 13.8 24 Sur 38 Sudeste 0 -- -- 64
2021-02-20 18:00:00 14.3 24 Sur 39 Sur 0 -- -- 64
2021-02-20 17:00:00 14.6 26 Sur 46 Sudoeste 0 -- -- 59
2021-02-20 16:00:00 14.9 19 Sur 39 Sur 0 -- -- 62
2021-02-20 15:00:00 14.6 18 Sur 37 Sudeste 0 -- -- 65
2021-02-20 14:00:00 14.8 26 Sur 41 Sur 0 -- -- 69
2021-02-20 13:00:00 13.2 25 Sur 37 Sur 0 -- -- 76
2021-02-20 12:00:00 11.7 18 Sudeste 33 Sudeste 0 -- -- 87
2021-02-20 11:00:00 10.9 20 Sudeste 36 Sur 0 -- -- 89
2021-02-20 10:00:00 11 21 Sur 31 Sur 0 -- -- 89
2021-02-20 09:00:00 9 13 Sur 22 Sur 0 -- -- 96
2021-02-20 08:00:00 9 14 Sur 26 Sudeste 0 -- -- 97
2021-02-20 07:00:00 9 15 Sur 32 Sudeste 0 -- -- 97
2021-02-20 06:00:00 9.1 21 Sur 31 Sur 0 -- -- 96
2021-02-20 05:00:00 9.2 19 Sur 32 Sur 0 -- -- 96
2021-02-20 04:00:00 8.8 15 Sur 29 Sur 0 -- -- 97
2021-02-20 03:00:00 8.6 12 Sudeste 24 Sudoeste 0 -- -- 98
2021-02-20 02:00:00 9.5 12 Sur 25 Sur 0 -- -- 95
2021-02-20 01:00:00 8.4 14 Sur 22 Sur 0 -- -- 96
2021-02-20 00:00:00 10 12 Sur 26 Sur 0 -- -- 90
2021-02-19 23:00:00 11 14 Sur 24 Sur 0 -- -- 86
2021-02-19 22:00:00 11.5 14 Sur 23 Sur 0 -- -- 84
2021-02-19 21:00:00 12.2 13 Sur 24 Sur 0 -- -- 83
2021-02-19 20:00:00 12.1 11 Sur 19 Sur 0 -- -- 83
2021-02-19 19:00:00 13 10 Sur 21 Sudoeste 0 -- -- 79
2021-02-19 18:00:00 14.3 12 Sudoeste 28 Sudoeste 0 -- -- 71
2021-02-19 17:00:00 14.1 13 Sudoeste 23 Sudoeste 0 -- -- 79
2021-02-19 16:00:00 14 9 Sudoeste 22 Oeste 0 -- -- 80
2021-02-19 15:00:00 14.3 12 Oeste 22 Sudoeste 0 -- -- 77
2021-02-19 14:00:00 13.5 14 Sudoeste 23 Sudoeste 0 -- -- 79
2021-02-19 13:00:00 13.5 10 Sur 17 Sur 0 -- -- 78
2021-02-19 12:00:00 11.8 13 Sudoeste 19 Sudoeste 0 -- -- 88
2021-02-19 11:00:00 10 9 Sudoeste 17 Sudoeste 0 -- -- 95
2021-02-19 10:00:00 9.6 14 Sur 20 Sur 0 -- -- 94
2021-02-19 09:00:00 7.1 9 Sur 14 Sur 0 -- -- 100
2021-02-19 08:00:00 5 8 Sudeste 10 Sur 0 -- -- 100
2021-02-19 07:00:00 5.3 7 Sur 9 Sudeste 0 -- -- 100
2021-02-19 06:00:00 5.4 7 Sudeste 9 Sudeste 0 -- -- 100
2021-02-19 05:00:00 6.7 3 Este 6 Sudeste 0 -- -- 100
2021-02-19 04:00:00 7.2 3 Sudeste 8 Sudoeste 0 -- -- 100
2021-02-19 03:00:00 8.8 0 Calma 17 Sudoeste 0 -- -- 97
2021-02-19 02:00:00 10.2 13 Sudoeste 22 Sudoeste 0 -- -- 97
2021-02-19 01:00:00 11.4 15 Sudoeste 28 Oeste 0 -- -- 95
2021-02-19 00:00:00 12.1 21 Sudoeste 32 Sudoeste 0 -- -- 88
2021-02-18 23:00:00 12.6 18 Sudoeste 27 Sudoeste 0 -- -- 72
2021-02-18 22:00:00 13.3 13 Sudoeste 24 Sudoeste 0 -- -- 63
2021-02-18 21:00:00 13.2 13 Sudoeste 19 Sudoeste 0 -- -- 66
2021-02-18 20:00:00 13.2 11 Sudoeste 25 Sudoeste 0 -- -- 68
2021-02-18 19:00:00 14 9 Sudoeste 24 Sudoeste 0 -- -- 65
2021-02-18 18:00:00 15.6 11 Sudoeste 24 Sudoeste 0 -- -- 60
2021-02-18 17:00:00 16.3 14 Sudoeste 28 Sudoeste 0 -- -- 62
2021-02-18 16:00:00 16.5 15 Sudoeste 24 Sudoeste 0 -- -- 61
2021-02-18 15:00:00 16.2 13 Sudoeste 21 Sur 0 -- -- 68
2021-02-18 14:00:00 15.4 11 Sudoeste 20 Sudoeste 0 -- -- 73
2021-02-18 13:00:00 13.8 5 Sur 15 Sur 0 -- -- 80
2021-02-18 12:00:00 10.8 6 Sur 17 Sur 0 -- -- 97
2021-02-18 11:00:00 9.4 11 Sur 15 Sur 0 -- -- 100
2021-02-18 10:00:00 8.8 7 Sur 13 Sur 0 -- -- 100
2021-02-18 09:00:00 8.5 6 Sudoeste 10 Sur 0 -- -- 100
2021-02-18 08:00:00 7.2 4 Sur 10 Sudeste 0 -- -- 100
2021-02-18 07:00:00 7.1 5 Sudeste 13 Sur 0 -- -- 100
2021-02-18 06:00:00 5.1 0 Calma 6 Sudeste 0 -- -- 100
2021-02-18 05:00:00 6.4 0 Calma 2 Norte 0 -- -- 100
2021-02-18 04:00:00 7.2 2 Noroeste 6 Oeste 0 -- -- 100
2021-02-18 03:00:00 8.6 5 Oeste 9 Noroeste 0 -- -- 100
2021-02-18 02:00:00 9.7 6 Noroeste 10 Noroeste 0 -- -- 100
2021-02-18 01:00:00 9.2 3 Este 5 Este 0 -- -- 100
2021-02-18 00:00:00 10.1 0 Calma 11 Sudoeste 0 -- -- 99
2021-02-17 23:00:00 11.3 3 Sudoeste 13 Oeste 0 -- -- 95
2021-02-17 22:00:00 13.2 13 Oeste 30 Sudoeste 0 -- -- 89
2021-02-17 21:00:00 13.4 13 Sudoeste 23 Oeste 0 -- -- 82
2021-02-17 20:00:00 13.7 13 Sudoeste 20 Oeste 0 -- -- 79
2021-02-17 19:00:00 14.1 7 Sudoeste 12 Sur 0 -- -- 76
2021-02-17 18:00:00 16.9 9 Sur 14 Sudoeste 0 -- -- 65
2021-02-17 17:00:00 17.7 9 Sur 19 Sur 0 -- -- 63
2021-02-17 16:00:00 18.2 11 Sur 18 Sur 0 -- -- 61
2021-02-17 15:00:00 18.1 9 Sudoeste 17 Sur 0 -- -- 62
2021-02-17 14:00:00 17 11 Sur 19 Sur 0 -- -- 69
2021-02-17 13:00:00 16.4 10 Sur 18 Sudeste 0 -- -- 73
2021-02-17 12:00:00 14.9 10 Sur 15 Sudeste 0 -- -- 81
2021-02-17 11:00:00 13.3 6 Sudeste 10 Sudeste 0 -- -- 87
2021-02-17 10:00:00 10.1 4 Sudeste 9 Sudeste 0 -- -- 100
2021-02-17 09:00:00 6 5 Sur 9 Sudeste 0 -- -- 100
2021-02-17 08:00:00 5.7 8 Sudeste 9 Sudeste 0 -- -- 100
2021-02-17 07:00:00 5 5 Sudeste 8 Sudeste 0 -- -- 100
2021-02-17 06:00:00 5.6 0 Calma 6 Sudeste 0 -- -- 100
2021-02-17 05:00:00 5.9 0 Calma 4 Este 0 -- -- 100
2021-02-17 04:00:00 6.5 0 Calma 4 Norte 0 -- -- 100
2021-02-17 03:00:00 6.4 0 Calma 2 Sur 0 -- -- 100
2021-02-17 02:00:00 6.8 0 Calma 3 Sur 0 -- -- 100
2021-02-17 01:00:00 6.6 0 Calma 5 Sudeste 0 -- -- 100
2021-02-17 00:00:00 7.1 2 Este 5 Sudeste 0 -- -- 100
2021-02-16 23:00:00 7.2 0 Calma 3 Este 0 -- -- 100
2021-02-16 22:00:00 7.8 0 Calma 4 Sudeste 0 -- -- 100
2021-02-16 21:00:00 8.6 0 Calma 3 Sudeste 0 -- -- 99
2021-02-16 20:00:00 10 0 Calma 3 Sur 0 -- -- 95
2021-02-16 19:00:00 12.8 2 Noroeste 9 Oeste 0 -- -- 88
2021-02-16 18:00:00 14.4 5 Sudoeste 13 Sudoeste 0 -- -- 76
2021-02-16 17:00:00 15.1 8 Oeste 19 Oeste 0 -- -- 71
2021-02-16 16:00:00 15.4 10 Sudoeste 22 Oeste 0 -- -- 72
2021-02-16 15:00:00 15.3 17 Oeste 25 Oeste 0 -- -- 68
2021-02-16 14:00:00 15.5 14 Oeste 29 Sudoeste 0 -- -- 65
2021-02-16 13:00:00 15.2 7 Noroeste 13 Oeste 0 -- -- 63
2021-02-16 12:00:00 13.9 0 Calma 6 Oeste 0 -- -- 68
2021-02-16 11:00:00 12.5 4 Sudeste 10 Sudeste 0 -- -- 70
2021-02-16 10:00:00 9.8 7 Sudeste 11 Sudeste 0 -- -- 84
2021-02-16 09:00:00 7 8 Sudeste 10 Sudeste 0 -- -- 92
2021-02-16 08:00:00 6.5 10 Sudeste 15 Sudeste 0 -- -- 91
2021-02-16 07:00:00 6 11 Sur 18 Sudeste 0 -- -- 91
2021-02-16 06:00:00 6.5 4 Sudeste 14 Sudeste 0 -- -- 89
2021-02-16 05:00:00 6.9 9 Sudeste 14 Sudeste 0 -- -- 88
2021-02-16 04:00:00 7.3 8 Sudeste 15 Sudeste 0 -- -- 87
2021-02-16 03:00:00 7.6 6 Sudeste 13 Sur 0 -- -- 87
2021-02-16 02:00:00 9.2 12 Sudeste 21 Sudeste 0 -- -- 84
2021-02-16 01:00:00 10.2 14 Sudeste 24 Sudeste 0 -- -- 80
2021-02-16 00:00:00 10.5 11 Sudeste 27 Sudeste 0 -- -- 81
2021-02-15 23:00:00 11.3 15 Sudeste 23 Sudeste 0 -- -- 80
2021-02-15 22:00:00 11.7 15 Sudeste 30 Sur 0 -- -- 82
2021-02-15 21:00:00 12.7 21 Sur 30 Sudeste 0 -- -- 77
2021-02-15 20:00:00 13 15 Sur 21 Sur 0 -- -- 74
2021-02-15 19:00:00 14.8 11 Sudeste 24 Sudeste 0 -- -- 63
2021-02-15 18:00:00 17.5 15 Sudeste 35 Sudeste 0 -- -- 60
2021-02-15 17:00:00 18 22 Sudeste 34 Sudeste 0 -- -- 57
2021-02-15 16:00:00 17.8 23 Sudeste 34 Sudeste 0 -- -- 58
2021-02-15 15:00:00 17.2 22 Sudeste 33 Sudeste 0 -- -- 64
2021-02-15 14:00:00 16.4 21 Sudeste 37 Sudeste 0 -- -- 63
2021-02-15 13:00:00 15.5 27 Sudeste 40 Sudeste 0 -- -- 63
2021-02-15 12:00:00 14.8 27 Sudeste 39 Sudeste 0 -- -- 62
2021-02-15 11:00:00 13.8 24 Sudeste 36 Sudeste 0 -- -- 66
2021-02-15 10:00:00 11.9 21 Sudeste 33 Sudeste 0 -- -- 77
2021-02-15 09:00:00 8.9 16 Sudeste 22 Sudeste 0 -- -- 85
2021-02-15 08:00:00 7.3 13 Sudeste 21 Sudeste 0 -- -- 88
2021-02-15 07:00:00 7.5 16 Sudeste 22 Sudeste 0 -- -- 88
2021-02-15 06:00:00 6.9 11 Sudeste 15 Sudeste 0 -- -- 92
2021-02-15 05:00:00 7.3 9 Sudeste 14 Sudeste 0 -- -- 87
2021-02-15 04:00:00 7.7 7 Sudeste 17 Sudeste 0 -- -- 87
2021-02-15 03:00:00 9.4 13 Sudeste 20 Sudeste 0 -- -- 84
2021-02-15 02:00:00 9.9 14 Sudeste 16 Sudeste 0 -- -- 86
2021-02-15 01:00:00 9.8 10 Sudeste 15 Sudeste 0 -- -- 86
2021-02-15 00:00:00 11 14 Sudeste 17 Sudeste 0 -- -- 82
2021-02-14 23:00:00 10.6 9 Sudeste 14 Sudeste 0 -- -- 83
2021-02-14 22:00:00 10.1 4 Sur 9 Sudeste 0 -- -- 87
2021-02-14 21:00:00 11.1 4 Sudeste 5 Sudeste 0 -- -- 85
2021-02-14 20:00:00 12.2 0 Calma 8 Este 0 -- -- 81
2021-02-14 19:00:00 14.3 7 Sudeste 15 Este 0 -- -- 73
2021-02-14 18:00:00 17.6 11 Sudeste 19 Sudeste 0 -- -- 60
2021-02-14 17:00:00 18.3 13 Sudeste 21 Sudeste 0 -- -- 57
2021-02-14 16:00:00 18.8 16 Sudeste 26 Sudeste 0 -- -- 54
2021-02-14 15:00:00 18.6 14 Sudeste 26 Sudeste 0 -- -- 59
2021-02-14 14:00:00 17.7 19 Sudeste 29 Sudeste 0 -- -- 56
2021-02-14 13:00:00 16.6 21 Sudeste 30 Sudeste 0 -- -- 64
2021-02-14 12:00:00 15.3 17 Sur 31 Sudeste 0 -- -- 71
2021-02-14 11:00:00 13.3 14 Sudeste 23 Sudeste 0 -- -- 81
2021-02-14 10:00:00 11.1 12 Sudeste 18 Sudeste 0 -- -- 90
2021-02-14 09:00:00 7.4 6 Sudeste 10 Sudeste 0 -- -- 99
2021-02-14 08:00:00 4.6 0 Calma 2 Sudeste 0 -- -- 100
2021-02-14 07:00:00 5.9 0 Calma 2 Sur 0 -- -- 96
2021-02-14 06:00:00 5.9 0 Calma 3 Sur 0 -- -- 99
2021-02-14 05:00:00 6 0 Calma 4 Sur 0 -- -- 100
2021-02-14 04:00:00 6.1 0 Calma 4 Sudeste 0 -- -- 100
2021-02-14 03:00:00 5.9 0 Calma 5 Sudoeste 0 -- -- 100
2021-02-14 02:00:00 6.1 0 Calma 5 Sudeste 0 -- -- 100
2021-02-14 01:00:00 6.7 0 Calma 3 Este 0 -- -- 100
2021-02-14 00:00:00 7.2 3 Sudeste 5 Sudeste 0 -- -- 99
2021-02-13 23:00:00 8.7 0 Calma 8 Noroeste 0 -- -- 96
2021-02-13 22:00:00 8.8 9 Noroeste 10 Noroeste 0 -- -- 97
2021-02-13 21:00:00 8.8 0 Calma 7 Noroeste 0 -- -- 98
2021-02-13 20:00:00 10.4 6 Noroeste 8 Noroeste 0 -- -- 94
2021-02-13 19:00:00 13.5 0 Calma 10 Sudoeste 0 -- -- 83
2021-02-13 18:00:00 16.8 5 Oeste 10 Sur 0 -- -- 69
2021-02-13 17:00:00 17.6 3 Oeste 13 Noroeste 0 -- -- 57
2021-02-13 16:00:00 17.4 0 Calma 11 Oeste 0 -- -- 41
2021-02-13 15:00:00 16.5 5 Noroeste 14 Norte 0 -- -- 55
2021-02-13 14:00:00 15.4 6 Noroeste 15 Oeste 0 -- -- 61
2021-02-13 13:00:00 13.8 2 Noroeste 8 Nordeste 0 -- -- 74
2021-02-13 08:00:00 -- -- -- -- -- -- -- -- --
2021-02-13 07:00:00 -- -- -- -- -- -- -- -- --
2021-02-13 06:00:00 -- -- -- -- -- -- -- -- --
2021-02-13 05:00:00 -- -- -- -- -- -- -- -- --
2021-02-13 04:00:00 7.2 5 Noroeste 7 Noroeste 0 -- -- 100
2021-02-13 03:00:00 6.7 0 Calma 5 Noroeste 0 -- -- 100
2021-02-13 02:00:00 6.5 0 Calma 4 Oeste 0 -- -- 100
2021-02-13 01:00:00 6.6 2 Oeste 6 Noroeste 0 -- -- 100
2021-02-13 00:00:00 7.6 3 Noroeste 6 Oeste 0 -- -- 99
2021-02-12 23:00:00 8.6 5 Oeste 7 Noroeste 0 -- -- 95
2021-02-12 22:00:00 9.2 5 Oeste 11 Noroeste 0 -- -- 91
2021-02-12 21:00:00 9.9 9 Noroeste 12 Noroeste 0 -- -- 89
2021-02-12 20:00:00 10.9 9 Noroeste 13 Noroeste 0 -- -- 85
2021-02-12 19:00:00 12.7 8 Noroeste 21 Noroeste 0 -- -- 79
2021-02-12 18:00:00 15.3 14 Noroeste 21 Noroeste 0 -- -- 69
2021-02-12 17:00:00 16.2 10 Noroeste 24 Oeste 0 -- -- 66
2021-02-12 16:00:00 15.6 10 Noroeste 25 Noroeste 0 -- -- 68
2021-02-12 15:00:00 15 11 Norte 27 Oeste 0 -- -- 73
2021-02-12 14:00:00 14.9 15 Noroeste 29 Noroeste 0 -- -- 77
2021-02-12 13:00:00 14.5 21 Noroeste 35 Noroeste 0 -- -- 79
2021-02-12 12:00:00 13.4 21 Noroeste 30 Oeste 0 -- -- 83
2021-02-12 11:00:00 12 14 Noroeste 22 Noroeste 0 -- -- 90
2021-02-12 10:00:00 10.5 8 Oeste 11 Oeste 0 -- -- 100
2021-02-12 09:00:00 8.6 5 Noroeste 13 Noroeste 0 -- -- 100
2021-02-12 08:00:00 8.5 9 Noroeste 18 Oeste 0.2 -- -- 100
2021-02-12 07:00:00 8.9 9 Noroeste 22 Oeste 0 -- -- 100
2021-02-12 06:00:00 9.8 16 Oeste 24 Oeste 0 -- -- 100
2021-02-12 05:00:00 11 12 Oeste 38 Oeste 0 -- -- 100
2021-02-12 04:00:00 11.9 22 Noroeste 37 Oeste 1 -- -- 100
2021-02-12 03:00:00 12.2 18 Oeste 40 Sudoeste 0.8 -- -- 100
2021-02-12 02:00:00 12.2 25 Sudoeste 36 Sudoeste 2.8 -- -- 100
2021-02-12 01:00:00 12.4 17 Sudoeste 35 Sudoeste 0.4 -- -- 100
2021-02-12 00:00:00 12.2 18 Sudoeste 28 Oeste 0 -- -- 100
2021-02-11 23:00:00 12.4 18 Sudoeste 28 Sudoeste 0 -- -- 100
2021-02-11 22:00:00 12.5 18 Sudoeste 28 Sur 0.8 -- -- 100
2021-02-11 21:00:00 12.7 12 Sur 22 Sur 0 -- -- 100
2021-02-11 20:00:00 12.4 11 Sur 21 Sur 0 -- -- 100
2021-02-11 19:00:00 13.1 10 Sudoeste 26 Sudoeste 0 -- -- 97
2021-02-11 18:00:00 13.8 10 Sudoeste 19 Sudoeste 0 -- -- 97
2021-02-11 17:00:00 13.9 8 Sur 26 Sudoeste 0 -- -- 95
2021-02-11 16:00:00 13.9 17 Sudoeste 26 Sudoeste 0 -- -- 96
2021-02-11 15:00:00 14.3 16 Sudoeste 27 Sudoeste 0 -- -- 97
2021-02-11 14:00:00 13.6 8 Sudoeste 18 Sudoeste 0 -- -- 100
2021-02-11 13:00:00 13 10 Sudoeste 22 Sudoeste 0.6 -- -- 100
2021-02-11 12:00:00 12.3 12 Sudoeste 21 Sur 0.4 -- -- 100
2021-02-11 11:00:00 12 10 Sudoeste 20 Sudoeste 0.6 -- -- 100
2021-02-11 10:00:00 11.8 12 Sudoeste 23 Sur 0 -- -- 100
2021-02-11 09:00:00 11.5 13 Sudoeste 19 Sudoeste 0 -- -- 100
2021-02-11 08:00:00 11.3 10 Sudoeste 17 Oeste 0 -- -- 100
2021-02-11 07:00:00 11.3 11 Sudoeste 18 Sudoeste 0 -- -- 100
2021-02-11 06:00:00 11.5 14 Oeste 23 Sudoeste 0.2 -- -- 100
2021-02-11 05:00:00 11.8 12 Oeste 20 Oeste 0 -- -- 100
2021-02-11 04:00:00 12.1 12 Oeste 22 Oeste 0 -- -- 100
2021-02-11 03:00:00 12.3 17 Oeste 27 Sudoeste 0 -- -- 100
2021-02-11 02:00:00 12.4 11 Oeste 21 Oeste 0 -- -- 100
2021-02-11 01:00:00 12.5 15 Oeste 23 Oeste 0 -- -- 100
2021-02-11 00:00:00 12.2 6 Oeste 12 Oeste 0.4 -- -- 100
2021-02-10 23:00:00 11.8 6 Sur 10 Sur 0.4 -- -- 100
2021-02-10 22:00:00 12.2 5 Sudoeste 10 Sudoeste 0 -- -- 100
2021-02-10 21:00:00 12 0 Calma 10 Oeste 0 -- -- 100
2021-02-10 20:00:00 11.9 8 Oeste 19 Oeste 0 -- -- 100
2021-02-10 19:00:00 12.8 15 Oeste 22 Oeste 0 -- -- 93
2021-02-10 18:00:00 12.9 12 Oeste 19 Sudoeste 0 -- -- 90
2021-02-10 17:00:00 13.3 13 Sudoeste 24 Sudoeste 0 -- -- 84
2021-02-10 16:00:00 13.8 15 Oeste 25 Oeste 0 -- -- 78
2021-02-10 15:00:00 14 14 Oeste 30 Oeste 0 -- -- 77
2021-02-10 14:00:00 14.5 15 Noroeste 26 Oeste 0 -- -- 72
2021-02-10 13:00:00 13.8 19 Oeste 27 Oeste 0 -- -- 79
2021-02-10 12:00:00 12.8 15 Noroeste 25 Noroeste 0 -- -- 82
2021-02-10 11:00:00 11 13 Noroeste 22 Oeste 0 -- -- 91
2021-02-10 10:00:00 10.7 15 Oeste 22 Oeste 0 -- -- 99
2021-02-10 09:00:00 9.6 15 Oeste 24 Oeste 0.2 -- -- 100
2021-02-10 08:00:00 9.9 15 Oeste 24 Oeste 1 -- -- 100
2021-02-10 07:00:00 10 16 Oeste 27 Oeste 0.6 -- -- 100
2021-02-10 06:00:00 10.6 18 Oeste 39 Oeste 0 -- -- 96
2021-02-10 05:00:00 10.8 25 Oeste 50 Oeste 0 -- -- 94
2021-02-10 04:00:00 10.5 30 Oeste 52 Oeste 0 -- -- 93
2021-02-10 03:00:00 9.7 23 Oeste 40 Oeste 0 -- -- 99
2021-02-10 02:00:00 9.7 22 Sudoeste 41 Sudoeste 0 -- -- 99
2021-02-10 01:00:00 9.9 23 Oeste 49 Oeste 0 -- -- 95
2021-02-10 00:00:00 9.7 27 Sudoeste 46 Oeste 0 -- -- 100
2021-02-09 23:00:00 9.4 18 Oeste 36 Oeste 0 -- -- 100
2021-02-09 22:00:00 9.3 22 Sudoeste 34 Oeste 0 -- -- 98
2021-02-09 21:00:00 9.4 17 Oeste 33 Oeste 0 -- -- 96
2021-02-09 20:00:00 10.2 16 Oeste 37 Oeste 0 -- -- 95
2021-02-09 19:00:00 10.7 22 Oeste 39 Oeste 0 -- -- 93
2021-02-09 18:00:00 11.3 20 Oeste 40 Oeste 0 -- -- 91
2021-02-09 17:00:00 10.4 22 Sudoeste 41 Oeste 0.2 -- -- 99
2021-02-09 16:00:00 10.7 23 Oeste 42 Oeste 0.2 -- -- 100
2021-02-09 15:00:00 10 23 Oeste 50 Oeste 1 -- -- 100
2021-02-09 14:00:00 10.5 36 Oeste 57 Oeste 2.8 -- -- 100
2021-02-09 13:00:00 10.4 25 Oeste 52 Sudoeste 7.4 -- -- 100
2021-02-09 12:00:00 10.1 34 Sudoeste 63 Sudoeste 5 -- -- 100
2021-02-09 11:00:00 9.9 29 Sudoeste 52 Sudoeste 1.8 -- -- 100
2021-02-09 10:00:00 9.5 26 Sudoeste 50 Sudoeste 0.2 -- -- 100
2021-02-09 09:00:00 9.3 22 Sudoeste 48 Sudoeste 0.4 -- -- 100
2021-02-09 08:00:00 9.4 30 Sudoeste 53 Sudoeste 0 -- -- 100
2021-02-09 07:00:00 9.6 23 Sudoeste 54 Oeste 0.2 -- -- 98
2021-02-09 06:00:00 9.5 26 Sudoeste 46 Oeste 0 -- -- 100
2021-02-09 05:00:00 9.5 22 Sudoeste 41 Sudoeste 0 -- -- 100
2021-02-09 04:00:00 9.4 20 Sudoeste 45 Oeste 0 -- -- 100
2021-02-09 03:00:00 9 23 Sudoeste 38 Sudoeste 0 -- -- 100
2021-02-09 02:00:00 8.7 17 Sudoeste 31 Sudoeste 0 -- -- 100
2021-02-09 01:00:00 8.5 13 Sudoeste 31 Sudoeste 0 -- -- 99
2021-02-09 00:00:00 8.2 17 Sudoeste 27 Oeste 0 -- -- 96
2021-02-08 23:00:00 8.5 18 Oeste 26 Oeste 0 -- -- 96
2021-02-08 22:00:00 8.8 18 Oeste 28 Sudoeste 0 -- -- 93
2021-02-08 21:00:00 9.3 15 Oeste 24 Oeste 0 -- -- 88
2021-02-08 20:00:00 9.2 15 Oeste 24 Oeste 0 -- -- 86
2021-02-08 19:00:00 9.6 15 Oeste 31 Oeste 0 -- -- 87
2021-02-08 18:00:00 10.7 18 Oeste 41 Noroeste 0 -- -- 85
2021-02-08 17:00:00 11.4 26 Oeste 43 Oeste 0.4 -- -- 81
2021-02-08 16:00:00 11.5 25 Oeste 44 Oeste 0 -- -- 82
2021-02-08 15:00:00 12 30 Oeste 47 Oeste 0 -- -- 78
2021-02-08 14:00:00 10.9 29 Oeste 48 Oeste 0.2 -- -- 87
2021-02-08 13:00:00 11.1 26 Oeste 43 Oeste 0 -- -- 84
2021-02-08 12:00:00 9.3 17 Noroeste 39 Oeste 0.2 -- -- 100
2021-02-08 11:00:00 9.4 23 Oeste 38 Oeste 0 -- -- 96
2021-02-08 10:00:00 8.7 18 Oeste 35 Oeste 0 -- -- 100
2021-02-08 09:00:00 8.5 17 Oeste 31 Oeste 0 -- -- 100
2021-02-08 08:00:00 8.2 14 Oeste 26 Oeste 0 -- -- 100
2021-02-08 07:00:00 7.9 17 Oeste 28 Oeste 0 -- -- 100
2021-02-08 06:00:00 8.3 13 Oeste 21 Oeste 0 -- -- 100
2021-02-08 05:00:00 8.6 12 Oeste 24 Noroeste 0 -- -- 100
2021-02-08 04:00:00 9.6 18 Noroeste 53 Sudoeste 2.4 -- -- 100
2021-02-08 03:00:00 10.1 23 Sudoeste 47 Sudoeste 5.8 -- -- 100
2021-02-08 02:00:00 9.5 23 Sudoeste 44 Sudoeste 3.2 -- -- 100
2021-02-08 01:00:00 9 22 Sudoeste 44 Sudoeste 1.6 -- -- 100
2021-02-08 00:00:00 8.8 24 Sudoeste 40 Sudoeste 0.8 -- -- 100
2021-02-07 23:00:00 8.5 14 Sudoeste 32 Sudoeste 0.4 -- -- 100
2021-02-07 22:00:00 8.5 17 Sur 36 Sudoeste 0 -- -- 100
2021-02-07 21:00:00 8.5 17 Sudoeste 39 Sudoeste 0 -- -- 99
2021-02-07 20:00:00 8.6 18 Sudoeste 35 Sudoeste 0 -- -- 94
2021-02-07 19:00:00 8.5 10 Sudoeste 21 Oeste 0 -- -- 93
2021-02-07 18:00:00 8.6 14 Oeste 30 Oeste 0 -- -- 92
2021-02-07 17:00:00 9 18 Oeste 35 Oeste 0 -- -- 88
2021-02-07 16:00:00 9.2 21 Oeste 32 Noroeste 0 -- -- 88
2021-02-07 15:00:00 10.7 18 Noroeste 36 Noroeste 0 -- -- 75
2021-02-07 14:00:00 10.6 18 Noroeste 33 Noroeste 0 -- -- 67
2021-02-07 13:00:00 9.8 17 Noroeste 25 Noroeste 0 -- -- 72
2021-02-07 12:00:00 9.2 12 Noroeste 18 Noroeste 0 -- -- 80
2021-02-07 11:00:00 7.7 13 Noroeste 17 Noroeste 0 -- -- 85
2021-02-07 10:00:00 6.4 10 Noroeste 15 Oeste 0 -- -- 95
2021-02-07 09:00:00 4.9 8 Noroeste 18 Noroeste 0 -- -- 100
2021-02-07 08:00:00 4.8 13 Noroeste 18 Noroeste 0 -- -- 100
2021-02-07 07:00:00 4.9 10 Noroeste 23 Noroeste 0 -- -- 100
2021-02-07 06:00:00 5.4 13 Noroeste 22 Norte 0 -- -- 100
2021-02-07 05:00:00 5.9 10 Noroeste 26 Noroeste 0 -- -- 99
2021-02-07 04:00:00 7 15 Noroeste 26 Noroeste 0 -- -- 96
2021-02-07 03:00:00 7.4 17 Noroeste 29 Noroeste 0 -- -- 96
2021-02-07 02:00:00 7.5 15 Noroeste 22 Noroeste 0 -- -- 99
2021-02-07 01:00:00 8.3 14 Noroeste 24 Noroeste 0 -- -- 98
2021-02-07 00:00:00 8.4 12 Noroeste 21 Norte 0 -- -- 99
2021-02-06 23:00:00 8.4 12 Norte 20 Norte 0 -- -- 100
2021-02-06 22:00:00 8.1 9 Noroeste 12 Noroeste 0 -- -- 100
2021-02-06 21:00:00 8 6 Noroeste 10 Norte 0 -- -- 100
2021-02-06 20:00:00 8.8 5 Norte 11 Noroeste 0 -- -- 100
2021-02-06 19:00:00 9.1 6 Noroeste 12 Noroeste 0 -- -- 100
2021-02-06 18:00:00 9.5 7 Noroeste 10 Noroeste 0 -- -- 99
2021-02-06 17:00:00 9.9 7 Noroeste 13 Noroeste 0 -- -- 98
2021-02-06 16:00:00 9.4 10 Oeste 20 Oeste 0.6 -- -- 100
2021-02-06 15:00:00 8.9 14 Oeste 24 Oeste 0.8 -- -- 100
2021-02-06 14:00:00 9.4 13 Oeste 19 Sudoeste 0 -- -- 100
2021-02-06 13:00:00 10.2 10 Oeste 16 Oeste 0 -- -- 97
2021-02-06 12:00:00 9.7 6 Noroeste 20 Oeste 0 -- -- 100
2021-02-06 11:00:00 8.6 13 Noroeste 20 Noroeste 0 -- -- 100
2021-02-06 10:00:00 8.3 14 Noroeste 23 Oeste 0 -- -- 100
2021-02-06 09:00:00 8.3 16 Noroeste 26 Sudoeste 0.4 -- -- 100
2021-02-06 08:00:00 8.3 15 Sudoeste 26 Sudoeste 0.2 -- -- 100
2021-02-06 07:00:00 8.2 14 Sudoeste 22 Sudoeste 0.4 -- -- 100
2021-02-06 06:00:00 8.1 15 Sudoeste 27 Sudoeste 1 -- -- 100
2021-02-06 05:00:00 8.2 15 Sudoeste 29 Sudoeste 0 -- -- 100
2021-02-06 04:00:00 8.6 12 Sudoeste 25 Sur 0 -- -- 100
2021-02-06 03:00:00 8.6 14 Sur 22 Sur 0 -- -- 100
2021-02-06 02:00:00 8.6 11 Sur 22 Sur 0 -- -- 100
2021-02-06 01:00:00 8.8 10 Sur 20 Sur 0 -- -- 100
2021-02-06 00:00:00 8.8 8 Sur 19 Sur 0.4 -- -- 100
2021-02-05 23:00:00 9.1 10 Sudeste 21 Sudeste 0 -- -- 100
2021-02-05 22:00:00 9.2 13 Sudeste 24 Sudeste 0 -- -- 100
2021-02-05 21:00:00 9.3 13 Sudeste 23 Este 0.2 -- -- 100
2021-02-05 20:00:00 9.2 9 Sudeste 20 Este 1.8 -- -- 100
2021-02-05 19:00:00 9.2 10 Sudeste 19 Sudeste 0.4 -- -- 100
2021-02-05 18:00:00 9.6 11 Sudeste 18 Este 1.2 -- -- 100
2021-02-05 17:00:00 9.7 12 Este 15 Este 1 -- -- 100
2021-02-05 16:00:00 10.1 6 Sudeste 12 Sudeste 1.4 -- -- 100
2021-02-05 15:00:00 10 6 Sudeste 15 Sudeste 1 -- -- 100
2021-02-05 14:00:00 9.9 6 Sur 17 Sur 1.2 -- -- 100
2021-02-05 13:00:00 9.8 12 Oeste 24 Sudoeste 0.6 -- -- 100
2021-02-05 12:00:00 10.4 11 Sudoeste 32 Sudoeste 0 -- -- 97
2021-02-05 11:00:00 10.4 13 Sudoeste 27 Sur 1.8 -- -- 98
2021-02-05 10:00:00 10 11 Sur 24 Sur 1.8 -- -- 99
2021-02-05 09:00:00 9.6 10 Sur 17 Sudeste 0.2 -- -- 100
2021-02-05 08:00:00 9.7 12 Sudeste 30 Sudoeste 2.4 -- -- 100
2021-02-05 07:00:00 9.1 9 Sudeste 16 Sudeste 4.2 -- -- 100
2021-02-05 06:00:00 8.8 7 Norte 15 Norte 0.4 -- -- 100
2021-02-05 05:00:00 8.9 2 Nordeste 14 Norte 0 -- -- 100
2021-02-05 04:00:00 8.8 12 Norte 24 Nordeste 0.4 -- -- 100
2021-02-05 03:00:00 8.6 13 Norte 17 Norte 0.4 -- -- 100
2021-02-05 02:00:00 8.7 13 Nordeste 21 Nordeste 0.2 -- -- 100
2021-02-05 01:00:00 8.7 15 Nordeste 24 Nordeste 0 -- -- 100
2021-02-05 00:00:00 8.8 9 Norte 15 Norte 0 -- -- 100
2021-02-04 23:00:00 9 2 Norte 15 Norte 0 -- -- 100
2021-02-04 22:00:00 9.2 6 Noroeste 11 Noroeste 0 -- -- 100
2021-02-04 21:00:00 9.3 3 Nordeste 12 Nordeste 0 -- -- 100
2021-02-04 20:00:00 9.4 6 Nordeste 11 Noroeste 0.2 -- -- 100
2021-02-04 19:00:00 9.7 5 Sur 19 Sudeste 0.8 -- -- 100
2021-02-04 18:00:00 9.9 12 Sudeste 24 Este 0.8 -- -- 99
2021-02-04 17:00:00 9.7 6 Sur 23 Este 2 -- -- 100
2021-02-04 16:00:00 10 10 Nordeste 21 Nordeste 0.2 -- -- 99
2021-02-04 15:00:00 10.3 11 Nordeste 24 Nordeste 1.2 -- -- 100
2021-02-04 14:00:00 9.9 11 Nordeste 22 Nordeste 0.6 -- -- 100
2021-02-04 13:00:00 9.5 12 Norte 19 Norte 5.6 -- -- 100
2021-02-04 12:00:00 9.4 6 Norte 19 Norte 10 -- -- 100
2021-02-04 11:00:00 9.4 6 Norte 9 Norte 4.2 -- -- 100
2021-02-04 10:00:00 9.3 5 Norte 8 Norte 3.2 -- -- 100
2021-02-04 09:00:00 9.3 5 Sudeste 18 Sudeste 0 -- -- 100
2021-02-04 08:00:00 9.1 13 Sudeste 19 Sudeste 0.4 -- -- 100
2021-02-04 07:00:00 9.1 10 Sudeste 20 Sudeste 0.6 -- -- 100
2021-02-04 06:00:00 9.2 13 Sudeste 16 Sudeste 0.2 -- -- 100
2021-02-04 05:00:00 9.2 9 Sudeste 15 Sudeste 0 -- -- 100
2021-02-04 04:00:00 9.2 11 Sudeste 15 Sudeste 0.2 -- -- 100
2021-02-04 03:00:00 9.4 8 Sudeste 16 Sudeste 0 -- -- 100
2021-02-04 02:00:00 9.6 11 Sur 17 Sur 0 -- -- 100
2021-02-04 01:00:00 9.9 8 Sudeste 19 Sur 0.2 -- -- 100
2021-02-04 00:00:00 10.4 12 Sur 18 Sudoeste 0.2 -- -- 100
2021-02-03 23:00:00 11 11 Sudoeste 22 Sur 0 -- -- 100
2021-02-03 22:00:00 11 10 Sudoeste 22 Sudoeste 0.2 -- -- 100
2021-02-03 21:00:00 11 12 Sudoeste 21 Sudoeste 0.2 -- -- 100
2021-02-03 20:00:00 11 11 Sudoeste 25 Sudoeste 0.6 -- -- 100
2021-02-03 19:00:00 11 15 Sudoeste 30 Oeste 1.6 -- -- 100
2021-02-03 18:00:00 11.4 23 Oeste 44 Sudoeste 2.8 -- -- 100
2021-02-03 17:00:00 13.4 23 Sudoeste 37 Sudoeste 0 -- -- 94
2021-02-03 16:00:00 13 15 Sudoeste 31 Sudoeste 0.4 -- -- 97
2021-02-03 15:00:00 12.3 17 Sudoeste 32 Sudoeste 0.2 -- -- 100
2021-02-03 14:00:00 12.3 16 Sudoeste 36 Sudoeste 0 -- -- 99
2021-02-03 13:00:00 11.6 17 Sudoeste 33 Sudoeste 1 -- -- 100
2021-02-03 12:00:00 10.5 10 Sur 26 Sur 1.2 -- -- 100
2021-02-03 11:00:00 10 13 Sur 27 Sur 0 -- -- 100
2021-02-03 10:00:00 9.8 15 Sur 26 Sudoeste 1.4 -- -- 100
2021-02-03 09:00:00 9.6 15 Sur 28 Sur 2 -- -- 100
2021-02-03 08:00:00 9.4 16 Sur 27 Sudoeste 1 -- -- 100
2021-02-03 07:00:00 9.5 17 Sur 30 Sur 1 -- -- 100
2021-02-03 06:00:00 10.3 16 Sur 26 Sur 0 -- -- 93
2021-02-03 05:00:00 10.7 15 Sur 29 Sur 0 -- -- 91
2021-02-03 04:00:00 10.8 14 Sur 28 Sur 0 -- -- 90
2021-02-03 03:00:00 10.8 13 Sur 23 Sur 0 -- -- 90
2021-02-03 02:00:00 10.9 10 Sudoeste 29 Sudoeste 0 -- -- 90
2021-02-03 01:00:00 11.1 15 Sudoeste 31 Sur 0 -- -- 90
2021-02-03 00:00:00 11 14 Sudoeste 25 Sudoeste 0 -- -- 90
2021-02-02 23:00:00 11.5 14 Oeste 24 Sudoeste 0 -- -- 88
2021-02-02 22:00:00 11.9 11 Sudoeste 23 Sudoeste 0 -- -- 86
2021-02-02 21:00:00 12 8 Sur 18 Sudoeste 0 -- -- 86
2021-02-02 20:00:00 11.9 7 Sudoeste 14 Sudoeste 0 -- -- 88
2021-02-02 19:00:00 12.1 9 Oeste 21 Sudoeste 0 -- -- 87
2021-02-02 18:00:00 12.5 11 Sudoeste 21 Sudoeste 0 -- -- 85
2021-02-02 17:00:00 12.7 10 Sudoeste 17 Sudoeste 0 -- -- 83
2021-02-02 16:00:00 12.7 12 Sudoeste 23 Oeste 0 -- -- 83
2021-02-02 15:00:00 12.8 15 Sudoeste 24 Sudoeste 0 -- -- 81
2021-02-02 14:00:00 12.9 14 Sudoeste 21 Sudoeste 0 -- -- 85
2021-02-02 13:00:00 12.7 15 Sudoeste 23 Sudoeste 0 -- -- 93
2021-02-02 12:00:00 12.8 9 Oeste 18 Oeste 0 -- -- 94
2021-02-02 11:00:00 11.2 9 Oeste 18 Oeste 0 -- -- 100
2021-02-02 10:00:00 10.7 7 Oeste 21 Oeste 0.2 -- -- 100
2021-02-02 09:00:00 10.7 9 Sudoeste 18 Sudoeste 0.2 -- -- 100
2021-02-02 08:00:00 10.7 11 Sudoeste 20 Oeste 0.4 -- -- 100
2021-02-02 07:00:00 10.7 12 Sudoeste 22 Sudoeste 0.2 -- -- 100
2021-02-02 06:00:00 10.8 14 Sudoeste 21 Sudoeste 0 -- -- 100
2021-02-02 05:00:00 10.7 13 Sudoeste 21 Sudoeste 0 -- -- 100
2021-02-02 04:00:00 10.5 11 Sudoeste 24 Oeste 0 -- -- 100
2021-02-02 03:00:00 10.5 14 Sudoeste 26 Sudoeste 0 -- -- 100
2021-02-02 02:00:00 10.6 11 Sudoeste 24 Sudoeste 0 -- -- 100
2021-02-02 01:00:00 10.4 8 Oeste 13 Oeste 0 -- -- 100
2021-02-02 00:00:00 10 9 Oeste 14 Oeste 0 -- -- 100
2021-02-01 23:00:00 10.2 10 Oeste 17 Oeste 0 -- -- 100
2021-02-01 22:00:00 9.6 8 Oeste 14 Oeste 0 -- -- 100
2021-02-01 21:00:00 9.5 5 Oeste 8 Oeste 0 -- -- 99
2021-02-01 20:00:00 10.1 8 Oeste 9 Oeste 0 -- -- 97
2021-02-01 19:00:00 11.4 8 Oeste 17 Oeste 0 -- -- 92
2021-02-01 18:00:00 12.7 10 Oeste 27 Oeste 0 -- -- 85
2021-02-01 17:00:00 14 19 Oeste 31 Oeste 0 -- -- 81
2021-02-01 16:00:00 13.7 21 Oeste 36 Oeste 0 -- -- 85
2021-02-01 15:00:00 13.8 22 Oeste 33 Oeste 0 -- -- 82
2021-02-01 14:00:00 14.5 22 Oeste 33 Oeste 0 -- -- 81
2021-02-01 13:00:00 12.9 18 Oeste 31 Noroeste 0 -- -- 89
2021-02-01 12:00:00 12.1 20 Oeste 30 Noroeste 0 -- -- 92
2021-02-01 11:00:00 11.2 13 Oeste 23 Sudoeste 0 -- -- 99
2021-02-01 10:00:00 10 2 Norte 9 Sudoeste 0 -- -- 100
2021-02-01 09:00:00 8.2 3 Nordeste 12 Oeste 0 -- -- 100
2021-02-01 08:00:00 8.5 7 Noroeste 19 Oeste 0 -- -- 100
2021-02-01 07:00:00 8.2 7 Oeste 14 Noroeste 0 -- -- 100
2021-02-01 06:00:00 9.1 8 Oeste 24 Oeste 0 -- -- 100
2021-02-01 05:00:00 9.9 16 Oeste 31 Noroeste 0 -- -- 100
2021-02-01 04:00:00 10.9 23 Oeste 35 Oeste 0 -- -- 100
2021-02-01 03:00:00 10.9 19 Oeste 29 Oeste 0 -- -- 100
2021-02-01 02:00:00 11.1 13 Oeste 24 Noroeste 0 -- -- 100
2021-02-01 01:00:00 12 15 Noroeste 25 Noroeste 0 -- -- 96
2021-02-01 00:00:00 11.8 8 Noroeste 15 Oeste 0 -- -- 100
2021-01-31 23:00:00 12.1 6 Norte 19 Oeste 0 -- -- 100
2021-01-31 22:00:00 12.4 14 Oeste 28 Oeste 0 -- -- 100
2021-01-31 21:00:00 13 13 Oeste 37 Oeste 0 -- -- 100
2021-01-31 20:00:00 13 22 Oeste 40 Oeste 0.2 -- -- 100
2021-01-31 19:00:00 13 22 Oeste 40 Oeste 0.2 -- -- 100
2021-01-31 18:00:00 13.2 24 Oeste 43 Oeste 0 -- -- 100
2021-01-31 17:00:00 13.4 23 Oeste 43 Oeste 0 -- -- 100
2021-01-31 16:00:00 13.4 27 Oeste 45 Oeste 0 -- -- 100
2021-01-31 15:00:00 13.3 27 Oeste 46 Oeste 0 -- -- 100
2021-01-31 14:00:00 12.9 28 Oeste 46 Oeste 0 -- -- 100
2021-01-31 13:00:00 11.8 24 Oeste 36 Oeste 0 -- -- 100
2021-01-31 12:00:00 11.1 19 Oeste 39 Sudoeste 0 -- -- 100
2021-01-31 11:00:00 10.8 19 Oeste 37 Oeste 0 -- -- 100
2021-01-31 10:00:00 10.1 18 Oeste 30 Oeste 0 -- -- 100
2021-01-31 09:00:00 9.8 13 Oeste 25 Oeste 0 -- -- 100
2021-01-31 08:00:00 9.6 17 Oeste 31 Oeste 0 -- -- 100
2021-01-31 07:00:00 9.4 14 Oeste 31 Oeste 0 -- -- 100
2021-01-31 06:00:00 9 22 Oeste 33 Oeste 0 -- -- 100
2021-01-31 05:00:00 8.2 16 Oeste 31 Oeste 0 -- -- 100
2021-01-31 04:00:00 7.9 23 Oeste 37 Oeste 0 -- -- 100
2021-01-31 03:00:00 7.7 16 Oeste 25 Oeste 0 -- -- 100
2021-01-31 02:00:00 7.9 17 Oeste 27 Oeste 0 -- -- 100
2021-01-31 01:00:00 7.8 14 Oeste 21 Oeste 0 -- -- 94
2021-01-31 00:00:00 8 5 Noroeste 12 Norte 0 -- -- 95